Balneario Barra do Sul, Brazil
Current Conditions -  °F | °C
As of 6:00 PM on Tuesday 25 Nov 2014 (Local Time) from SBJV Reporting Station
Light Rain Light Rain  
Wind Chill: 73°   Ceiling: 400
Heat Index: 73°   Visibility: 1.7mi
Dew Point: 72°   Wind: 2mph
Humidity: 94%   Direction: 130°SE
Pressure: 29.74"   Gusts: NA
Location:  26.46°S, 48.61°W
Report Text: SBJV 252000Z 13002KT 2800 -RA BR BKN004 OVC013 23/22 Q1007
Loading
Personal Weather Stations






























Interactive Weather Map New forecast layout! Learn more

10-Day Weather Forecast

Advertisements
Track Severe Weather on mobile